sensor_id;sensor_type;location;lat;lon;timestamp;P1;durP1;ratioP1;P2;durP2;ratioP2
12800;SDS011;6464;42.494;27.470;2023-05-02T04:03:31;0.10;;;0.10;;
12800;SDS011;6464;42.494;27.470;2023-05-02T04:06:00;0.10;;;0.10;;
12800;SDS011;6464;42.494;27.470;2023-05-02T04:08:31;0.10;;;0.10;;
12800;SDS011;6464;42.494;27.470;2023-05-02T04:11:09;0.10;;;0.10;;
12800;SDS011;6464;42.494;27.470;2023-05-02T04:26:40;0.30;;;0.30;;
12800;SDS011;6464;42.494;27.470;2023-05-02T04:29:10;0.33;;;0.33;;
12800;SDS011;6464;42.494;27.470;2023-05-02T04:31:40;0.40;;;0.40;;
12800;SDS011;6464;42.494;27.470;2023-05-02T04:34:28;0.40;;;0.40;;
12800;SDS011;6464;42.494;27.470;2023-05-02T04:36:57;0.40;;;0.40;;
12800;SDS011;6464;42.494;27.470;2023-05-02T04:39:27;0.50;;;0.50;;
12800;SDS011;6464;42.494;27.470;2023-05-02T04:42:02;0.50;;;0.50;;
12800;SDS011;6464;42.494;27.470;2023-05-02T04:44:31;0.63;;;0.63;;
12800;SDS011;6464;42.494;27.470;2023-05-02T04:47:06;0.70;;;0.70;;
12800;SDS011;6464;42.494;27.470;2023-05-02T04:49:40;0.70;;;0.70;;
12800;SDS011;6464;42.494;27.470;2023-05-02T04:52:24;0.60;;;0.60;;
12800;SDS011;6464;42.494;27.470;2023-05-02T04:54:56;0.73;;;0.73;;
12800;SDS011;6464;42.494;27.470;2023-05-02T04:57:35;0.70;;;0.70;;
12800;SDS011;6464;42.494;27.470;2023-05-02T05:00:19;0.90;;;0.90;;
12800;SDS011;6464;42.494;27.470;2023-05-02T05:02:57;0.90;;;0.90;;
12800;SDS011;6464;42.494;27.470;2023-05-02T05:05:39;0.80;;;0.80;;
12800;SDS011;6464;42.494;27.470;2023-05-02T05:08:29;1.13;;;1.13;;
12800;SDS011;6464;42.494;27.470;2023-05-02T05:10:56;1.10;;;1.10;;
12800;SDS011;6464;42.494;27.470;2023-05-02T05:13:28;1.20;;;1.20;;
12800;SDS011;6464;42.494;27.470;2023-05-02T05:15:57;1.30;;;1.30;;
12800;SDS011;6464;42.494;27.470;2023-05-02T05:18:24;1.50;;;1.50;;
12800;SDS011;6464;42.494;27.470;2023-05-02T05:20:52;1.40;;;1.40;;
12800;SDS011;6464;42.494;27.470;2023-05-02T05:23:20;1.70;;;1.70;;
12800;SDS011;6464;42.494;27.470;2023-05-02T05:25:48;2.23;;;2.23;;
12800;SDS011;6464;42.494;27.470;2023-05-02T05:28:15;3.00;;;3.00;;
12800;SDS011;6464;42.494;27.470;2023-05-02T05:30:44;3.50;;;3.50;;
12800;SDS011;6464;42.494;27.470;2023-05-02T05:33:11;3.50;;;3.50;;
12800;SDS011;6464;42.494;27.470;2023-05-02T05:35:38;3.50;;;3.50;;
12800;SDS011;6464;42.494;27.470;2023-05-02T05:38:06;4.20;;;4.10;;
12800;SDS011;6464;42.494;27.470;2023-05-02T05:40:33;4.40;;;4.30;;
12800;SDS011;6464;42.494;27.470;2023-05-02T05:43:00;4.43;;;4.33;;
12800;SDS011;6464;42.494;27.470;2023-05-02T05:45:28;4.73;;;4.63;;
12800;SDS011;6464;42.494;27.470;2023-05-02T05:47:56;5.10;;;5.00;;
12800;SDS011;6464;42.494;27.470;2023-05-02T05:50:23;5.10;;;5.00;;
12800;SDS011;6464;42.494;27.470;2023-05-02T05:52:52;5.10;;;5.00;;
12800;SDS011;6464;42.494;27.470;2023-05-02T05:55:19;5.67;;;5.57;;
12800;SDS011;6464;42.494;27.470;2023-05-02T05:57:46;5.60;;;5.50;;
12800;SDS011;6464;42.494;27.470;2023-05-02T06:00:13;5.70;;;5.60;;
12800;SDS011;6464;42.494;27.470;2023-05-02T06:02:41;5.60;;;5.50;;
12800;SDS011;6464;42.494;27.470;2023-05-02T06:05:10;5.80;;;5.70;;
12800;SDS011;6464;42.494;27.470;2023-05-02T06:07:37;5.80;;;5.70;;
12800;SDS011;6464;42.494;27.470;2023-05-02T06:10:04;5.60;;;5.50;;
12800;SDS011;6464;42.494;27.470;2023-05-02T06:12:33;5.67;;;5.57;;
12800;SDS011;6464;42.494;27.470;2023-05-02T06:15:00;5.70;;;5.60;;
12800;SDS011;6464;42.494;27.470;2023-05-02T06:17:27;5.80;;;5.70;;
12800;SDS011;6464;42.494;27.470;2023-05-02T06:19:55;5.87;;;5.77;;
12800;SDS011;6464;42.494;27.470;2023-05-02T06:22:23;5.80;;;5.70;;
12800;SDS011;6464;42.494;27.470;2023-05-02T06:24:50;6.20;;;6.00;;
12800;SDS011;6464;42.494;27.470;2023-05-02T06:27:17;6.30;;;6.10;;
12800;SDS011;6464;42.494;27.470;2023-05-02T06:29:44;5.83;;;5.73;;
12800;SDS011;6464;42.494;27.470;2023-05-02T06:32:11;6.30;;;6.10;;
12800;SDS011;6464;42.494;27.470;2023-05-02T06:34:38;5.87;;;5.77;;
12800;SDS011;6464;42.494;27.470;2023-05-02T06:37:05;5.73;;;5.63;;
12800;SDS011;6464;42.494;27.470;2023-05-02T06:39:33;5.95;;;5.85;;
12800;SDS011;6464;42.494;27.470;2023-05-02T06:42:02;5.70;;;5.60;;
12800;SDS011;6464;42.494;27.470;2023-05-02T06:44:29;5.95;;;5.85;;
12800;SDS011;6464;42.494;27.470;2023-05-02T06:46:56;6.30;;;6.10;;
12800;SDS011;6464;42.494;27.470;2023-05-02T06:49:24;6.03;;;5.93;;
12800;SDS011;6464;42.494;27.470;2023-05-02T06:51:52;6.00;;;5.90;;
12800;SDS011;6464;42.494;27.470;2023-05-02T06:54:19;5.90;;;5.80;;
12800;SDS011;6464;42.494;27.470;2023-05-02T06:56:47;5.97;;;5.88;;
12800;SDS011;6464;42.494;27.470;2023-05-02T06:59:16;6.22;;;6.03;;
12800;SDS011;6464;42.494;27.470;2023-05-02T07:01:43;6.22;;;6.03;;
12800;SDS011;6464;42.494;27.470;2023-05-02T07:04:09;6.22;;;6.03;;
12800;SDS011;6464;42.494;27.470;2023-05-02T07:06:37;6.57;;;6.38;;
12800;SDS011;6464;42.494;27.470;2023-05-02T07:09:04;6.28;;;6.07;;
12800;SDS011;6464;42.494;27.470;2023-05-02T07:11:32;6.43;;;6.22;;
12800;SDS011;6464;42.494;27.470;2023-05-02T07:14:02;6.70;;;6.50;;
12800;SDS011;6464;42.494;27.470;2023-05-02T07:16:29;6.80;;;6.60;;
12800;SDS011;6464;42.494;27.470;2023-05-02T07:18:57;6.70;;;6.50;;
12800;SDS011;6464;42.494;27.470;2023-05-02T07:21:25;6.80;;;6.60;;
12800;SDS011;6464;42.494;27.470;2023-05-02T07:23:53;6.90;;;6.70;;
12800;SDS011;6464;42.494;27.470;2023-05-02T07:26:21;7.00;;;6.80;;
12800;SDS011;6464;42.494;27.470;2023-05-02T07:28:49;7.00;;;6.80;;
12800;SDS011;6464;42.494;27.470;2023-05-02T07:33:53;7.20;;;7.00;;
12800;SDS011;6464;42.494;27.470;2023-05-02T07:36:21;7.40;;;7.20;;
12800;SDS011;6464;42.494;27.470;2023-05-02T07:38:48;7.20;;;7.00;;
12800;SDS011;6464;42.494;27.470;2023-05-02T07:44:06;7.10;;;6.90;;
12800;SDS011;6464;42.494;27.470;2023-05-02T07:46:44;7.07;;;6.88;;
12800;SDS011;6464;42.494;27.470;2023-05-02T07:49:14;7.20;;;7.00;;
12800;SDS011;6464;42.494;27.470;2023-05-02T07:51:41;7.50;;;7.30;;
12800;SDS011;6464;42.494;27.470;2023-05-02T07:54:19;7.43;;;7.22;;
12800;SDS011;6464;42.494;27.470;2023-05-02T07:57:15;7.28;;;7.07;;
12800;SDS011;6464;42.494;27.470;2023-05-02T07:59:43;7.40;;;7.20;;
12800;SDS011;6464;42.494;27.470;2023-05-02T08:02:11;7.32;;;7.13;;
12800;SDS011;6464;42.494;27.470;2023-05-02T08:04:45;7.72;;;7.53;;
12800;SDS011;6464;42.494;27.470;2023-05-02T08:07:15;7.63;;;7.43;;
12800;SDS011;6464;42.494;27.470;2023-05-02T08:09:42;7.30;;;7.10;;
12800;SDS011;6464;42.494;27.470;2023-05-02T08:12:11;7.32;;;7.13;;
12800;SDS011;6464;42.494;27.470;2023-05-02T08:14:44;7.60;;;7.40;;
12800;SDS011;6464;42.494;27.470;2023-05-02T08:17:12;7.55;;;7.35;;
12800;SDS011;6464;42.494;27.470;2023-05-02T08:19:50;7.55;;;7.35;;
12800;SDS011;6464;42.494;27.470;2023-05-02T08:22:20;7.55;;;7.35;;
12800;SDS011;6464;42.494;27.470;2023-05-02T08:24:48;7.65;;;7.45;;
12800;SDS011;6464;42.494;27.470;2023-05-02T08:27:16;7.80;;;7.60;;
12800;SDS011;6464;42.494;27.470;2023-05-02T08:29:47;7.68;;;7.47;;
12800;SDS011;6464;42.494;27.470;2023-05-02T08:32:42;7.55;;;7.35;;
12800;SDS011;6464;42.494;27.470;2023-05-02T08:37:58;7.60;;;7.40;;
12800;SDS011;6464;42.494;27.470;2023-05-02T08:40:33;7.68;;;7.47;;
12800;SDS011;6464;42.494;27.470;2023-05-02T08:43:05;7.30;;;7.10;;
12800;SDS011;6464;42.494;27.470;2023-05-02T08:45:49;7.50;;;7.30;;
12800;SDS011;6464;42.494;27.470;2023-05-02T08:48:35;7.32;;;7.13;;
12800;SDS011;6464;42.494;27.470;2023-05-02T08:51:09;7.65;;;7.45;;
12800;SDS011;6464;42.494;27.470;2023-05-02T08:54:04;7.80;;;7.60;;
12800;SDS011;6464;42.494;27.470;2023-05-02T08:56:40;8.10;;;7.90;;
12800;SDS011;6464;42.494;27.470;2023-05-02T08:59:07;7.90;;;7.70;;
12800;SDS011;6464;42.494;27.470;2023-05-02T09:01:35;8.60;;;8.30;;
12800;SDS011;6464;42.494;27.470;2023-05-02T09:04:13;10.07;;;9.68;;
12800;SDS011;6464;42.494;27.470;2023-05-02T09:06:46;9.90;;;9.60;;
12800;SDS011;6464;42.494;27.470;2023-05-02T09:09:14;10.13;;;9.82;;
12800;SDS011;6464;42.494;27.470;2023-05-02T09:11:45;10.60;;;10.20;;
12800;SDS011;6464;42.494;27.470;2023-05-02T09:14:16;10.65;;;10.25;;
12800;SDS011;6464;42.494;27.470;2023-05-02T09:16:46;10.00;;;9.70;;
12800;SDS011;6464;42.494;27.470;2023-05-02T09:19:22;9.70;;;9.40;;
12800;SDS011;6464;42.494;27.470;2023-05-02T09:21:59;9.43;;;9.13;;
12800;SDS011;6464;42.494;27.470;2023-05-02T09:24:27;7.60;;;7.40;;
12800;SDS011;6464;42.494;27.470;2023-05-02T09:27:01;7.60;;;7.40;;
12800;SDS011;6464;42.494;27.470;2023-05-02T09:29:30;7.60;;;7.40;;
12800;SDS011;6464;42.494;27.470;2023-05-02T09:32:11;7.90;;;7.70;;
12800;SDS011;6464;42.494;27.470;2023-05-02T09:35:03;8.43;;;8.13;;
12800;SDS011;6464;42.494;27.470;2023-05-02T09:37:35;8.48;;;8.20;;
12800;SDS011;6464;42.494;27.470;2023-05-02T09:40:05;7.93;;;7.72;;
12800;SDS011;6464;42.494;27.470;2023-05-02T09:42:34;8.20;;;8.00;;
12800;SDS011;6464;42.494;27.470;2023-05-02T09:45:01;8.38;;;8.13;;
12800;SDS011;6464;42.494;27.470;2023-05-02T09:47:28;8.80;;;8.50;;
12800;SDS011;6464;42.494;27.470;2023-05-02T09:49:55;8.27;;;8.07;;
12800;SDS011;6464;42.494;27.470;2023-05-02T09:52:22;8.32;;;8.10;;
12800;SDS011;6464;42.494;27.470;2023-05-02T09:54:50;8.57;;;8.27;;
12800;SDS011;6464;42.494;27.470;2023-05-02T09:57:17;8.60;;;8.30;;
12800;SDS011;6464;42.494;27.470;2023-05-02T09:59:52;8.88;;;8.57;;
12800;SDS011;6464;42.494;27.470;2023-05-02T10:02:19;8.90;;;8.60;;
12800;SDS011;6464;42.494;27.470;2023-05-02T10:04:47;9.20;;;8.90;;
12800;SDS011;6464;42.494;27.470;2023-05-02T10:07:15;8.60;;;8.30;;
12800;SDS011;6464;42.494;27.470;2023-05-02T10:09:43;8.93;;;8.63;;
12800;SDS011;6464;42.494;27.470;2023-05-02T10:12:13;9.30;;;9.00;;
12800;SDS011;6464;42.494;27.470;2023-05-02T10:14:41;8.70;;;8.40;;
12800;SDS011;6464;42.494;27.470;2023-05-02T10:17:15;8.90;;;8.60;;
12800;SDS011;6464;42.494;27.470;2023-05-02T10:19:49;8.63;;;8.32;;
12800;SDS011;6464;42.494;27.470;2023-05-02T10:22:22;8.80;;;8.50;;
12800;SDS011;6464;42.494;27.470;2023-05-02T10:24:49;9.00;;;8.70;;
12800;SDS011;6464;42.494;27.470;2023-05-02T10:27:17;8.77;;;8.48;;
12800;SDS011;6464;42.494;27.470;2023-05-02T10:29:45;8.35;;;8.05;;
12800;SDS011;6464;42.494;27.470;2023-05-02T10:32:12;8.77;;;8.48;;
12800;SDS011;6464;42.494;27.470;2023-05-02T10:34:40;8.70;;;8.40;;
12800;SDS011;6464;42.494;27.470;2023-05-02T10:37:07;9.10;;;8.80;;
12800;SDS011;6464;42.494;27.470;2023-05-02T10:39:34;8.95;;;8.65;;
12800;SDS011;6464;42.494;27.470;2023-05-02T10:42:02;8.50;;;8.20;;
12800;SDS011;6464;42.494;27.470;2023-05-02T10:44:32;8.70;;;8.40;;
12800;SDS011;6464;42.494;27.470;2023-05-02T10:47:00;8.90;;;8.60;;
12800;SDS011;6464;42.494;27.470;2023-05-02T10:49:27;9.00;;;8.70;;
12800;SDS011;6464;42.494;27.470;2023-05-02T10:51:54;9.20;;;8.90;;
12800;SDS011;6464;42.494;27.470;2023-05-02T10:54:21;8.93;;;8.63;;
12800;SDS011;6464;42.494;27.470;2023-05-02T10:57:05;8.95;;;8.65;;
12800;SDS011;6464;42.494;27.470;2023-05-02T10:59:35;9.20;;;8.90;;
12800;SDS011;6464;42.494;27.470;2023-05-02T11:02:03;9.45;;;9.15;;
12800;SDS011;6464;42.494;27.470;2023-05-02T11:07:26;9.20;;;8.90;;
12800;SDS011;6464;42.494;27.470;2023-05-02T11:12:52;9.52;;;9.23;;
12800;SDS011;6464;42.494;27.470;2023-05-02T11:18:23;9.80;;;9.50;;
12800;SDS011;6464;42.494;27.470;2023-05-02T11:20:51;8.90;;;8.60;;
12800;SDS011;6464;42.494;27.470;2023-05-02T11:23:23;8.85;;;8.55;;
12800;SDS011;6464;42.494;27.470;2023-05-02T11:25:51;9.88;;;9.57;;
12800;SDS011;6464;42.494;27.470;2023-05-02T11:28:39;8.57;;;8.27;;
12800;SDS011;6464;42.494;27.470;2023-05-02T11:31:09;9.00;;;8.70;;
12800;SDS011;6464;42.494;27.470;2023-05-02T11:34:38;9.00;;;8.70;;
12800;SDS011;6464;42.494;27.470;2023-05-02T11:37:12;8.80;;;8.50;;
12800;SDS011;6464;42.494;27.470;2023-05-02T11:39:40;9.00;;;8.70;;
12800;SDS011;6464;42.494;27.470;2023-05-02T11:42:07;8.95;;;8.65;;
12800;SDS011;6464;42.494;27.470;2023-05-02T11:47:24;9.60;;;9.30;;
12800;SDS011;6464;42.494;27.470;2023-05-02T11:49:53;9.40;;;9.10;;
12800;SDS011;6464;42.494;27.470;2023-05-02T11:52:21;9.05;;;8.75;;
12800;SDS011;6464;42.494;27.470;2023-05-02T11:54:48;9.32;;;9.02;;
12800;SDS011;6464;42.494;27.470;2023-05-02T11:57:19;9.50;;;9.20;;
12800;SDS011;6464;42.494;27.470;2023-05-02T11:59:50;9.52;;;9.23;;
12800;SDS011;6464;42.494;27.470;2023-05-02T12:02:17;9.60;;;9.30;;
12800;SDS011;6464;42.494;27.470;2023-05-02T12:04:46;9.50;;;9.20;;
12800;SDS011;6464;42.494;27.470;2023-05-02T12:07:13;9.30;;;9.00;;
12800;SDS011;6464;42.494;27.470;2023-05-02T12:09:49;9.40;;;9.10;;
12800;SDS011;6464;42.494;27.470;2023-05-02T12:12:18;9.40;;;9.10;;
12800;SDS011;6464;42.494;27.470;2023-05-02T12:14:45;9.20;;;8.90;;
12800;SDS011;6464;42.494;27.470;2023-05-02T12:17:12;9.40;;;9.10;;
12800;SDS011;6464;42.494;27.470;2023-05-02T12:19:39;9.25;;;8.95;;
12800;SDS011;6464;42.494;27.470;2023-05-02T12:22:08;9.00;;;8.70;;
12800;SDS011;6464;42.494;27.470;2023-05-02T12:24:35;8.70;;;8.40;;
12800;SDS011;6464;42.494;27.470;2023-05-02T12:27:11;8.70;;;8.40;;
12800;SDS011;6464;42.494;27.470;2023-05-02T12:29:40;9.10;;;8.80;;
12800;SDS011;6464;42.494;27.470;2023-05-02T12:32:07;9.40;;;9.10;;
12800;SDS011;6464;42.494;27.470;2023-05-02T12:34:34;8.80;;;8.50;;
12800;SDS011;6464;42.494;27.470;2023-05-02T12:37:03;9.10;;;8.80;;
12800;SDS011;6464;42.494;27.470;2023-05-02T12:39:35;8.90;;;8.60;;
12800;SDS011;6464;42.494;27.470;2023-05-02T12:42:09;8.90;;;8.60;;
12800;SDS011;6464;42.494;27.470;2023-05-02T12:44:37;8.85;;;8.55;;
12800;SDS011;6464;42.494;27.470;2023-05-02T12:47:05;8.60;;;8.30;;
12800;SDS011;6464;42.494;27.470;2023-05-02T12:49:32;8.50;;;8.20;;
12800;SDS011;6464;42.494;27.470;2023-05-02T12:51:59;8.65;;;8.35;;
12800;SDS011;6464;42.494;27.470;2023-05-02T12:54:26;10.23;;;9.82;;
12800;SDS011;6464;42.494;27.470;2023-05-02T12:56:54;10.30;;;9.90;;
12800;SDS011;6464;42.494;27.470;2023-05-02T12:59:25;8.77;;;8.48;;
12800;SDS011;6464;42.494;27.470;2023-05-02T13:01:53;9.68;;;9.38;;
12800;SDS011;6464;42.494;27.470;2023-05-02T13:04:20;9.85;;;9.55;;
12800;SDS011;6464;42.494;27.470;2023-05-02T13:06:46;8.60;;;8.30;;
12800;SDS011;6464;42.494;27.470;2023-05-02T13:09:13;10.15;;;9.75;;
12800;SDS011;6464;42.494;27.470;2023-05-02T13:11:40;10.25;;;9.85;;
12800;SDS011;6464;42.494;27.470;2023-05-02T13:14:09;10.15;;;9.77;;
12800;SDS011;6464;42.494;27.470;2023-05-02T13:16:36;9.85;;;9.55;;
12800;SDS011;6464;42.494;27.470;2023-05-02T13:19:03;10.43;;;10.02;;
12800;SDS011;6464;42.494;27.470;2023-05-02T13:21:30;9.70;;;9.40;;
12800;SDS011;6464;42.494;27.470;2023-05-02T13:23:57;8.88;;;8.57;;
12800;SDS011;6464;42.494;27.470;2023-05-02T13:26:24;8.60;;;8.30;;
12800;SDS011;6464;42.494;27.470;2023-05-02T13:28:51;8.70;;;8.40;;
12800;SDS011;6464;42.494;27.470;2023-05-02T13:31:19;8.50;;;8.20;;
12800;SDS011;6464;42.494;27.470;2023-05-02T13:33:46;8.60;;;8.30;;
12800;SDS011;6464;42.494;27.470;2023-05-02T13:36:13;8.77;;;8.48;;
12800;SDS011;6464;42.494;27.470;2023-05-02T13:38:39;8.45;;;8.15;;
12800;SDS011;6464;42.494;27.470;2023-05-02T13:41:06;8.65;;;8.35;;
12800;SDS011;6464;42.494;27.470;2023-05-02T13:43:33;8.18;;;7.97;;
12800;SDS011;6464;42.494;27.470;2023-05-02T13:46:00;8.45;;;8.15;;
12800;SDS011;6464;42.494;27.470;2023-05-02T13:48:28;8.68;;;8.38;;
12800;SDS011;6464;42.494;27.470;2023-05-02T13:50:55;8.65;;;8.35;;
12800;SDS011;6464;42.494;27.470;2023-05-02T13:53:22;8.40;;;8.10;;
12800;SDS011;6464;42.494;27.470;2023-05-02T13:55:49;9.07;;;8.77;;
12800;SDS011;6464;42.494;27.470;2023-05-02T13:58:15;8.77;;;8.48;;
12800;SDS011;6464;42.494;27.470;2023-05-02T14:00:42;8.60;;;8.30;;
12800;SDS011;6464;42.494;27.470;2023-05-02T14:03:09;9.00;;;8.70;;
12800;SDS011;6464;42.494;27.470;2023-05-02T14:05:38;8.50;;;8.20;;
12800;SDS011;6464;42.494;27.470;2023-05-02T14:08:07;8.70;;;8.40;;
12800;SDS011;6464;42.494;27.470;2023-05-02T14:10:34;8.80;;;8.50;;
12800;SDS011;6464;42.494;27.470;2023-05-02T14:13:02;8.25;;;8.02;;
12800;SDS011;6464;42.494;27.470;2023-05-02T14:15:28;8.48;;;8.18;;
12800;SDS011;6464;42.494;27.470;2023-05-02T14:17:55;8.57;;;8.27;;
12800;SDS011;6464;42.494;27.470;2023-05-02T14:20:23;8.50;;;8.20;;
12800;SDS011;6464;42.494;27.470;2023-05-02T14:22:51;8.65;;;8.35;;
12800;SDS011;6464;42.494;27.470;2023-05-02T14:25:18;8.13;;;7.93;;
12800;SDS011;6464;42.494;27.470;2023-05-02T14:27:45;8.40;;;8.10;;
12800;SDS011;6464;42.494;27.470;2023-05-02T14:30:12;8.30;;;8.00;;
12800;SDS011;6464;42.494;27.470;2023-05-02T14:32:39;8.13;;;7.93;;
12800;SDS011;6464;42.494;27.470;2023-05-02T14:35:06;8.00;;;7.80;;
12800;SDS011;6464;42.494;27.470;2023-05-02T14:37:34;8.10;;;7.90;;
12800;SDS011;6464;42.494;27.470;2023-05-02T14:40:02;8.38;;;8.07;;
12800;SDS011;6464;42.494;27.470;2023-05-02T14:42:30;8.10;;;7.90;;
12800;SDS011;6464;42.494;27.470;2023-05-02T14:44:57;7.97;;;7.78;;
12800;SDS011;6464;42.494;27.470;2023-05-02T14:47:26;8.00;;;7.80;;
12800;SDS011;6464;42.494;27.470;2023-05-02T14:49:54;7.93;;;7.72;;
12800;SDS011;6464;42.494;27.470;2023-05-02T14:52:21;7.90;;;7.70;;
12800;SDS011;6464;42.494;27.470;2023-05-02T14:54:48;7.80;;;7.60;;
12800;SDS011;6464;42.494;27.470;2023-05-02T14:57:16;7.65;;;7.45;;
12800;SDS011;6464;42.494;27.470;2023-05-02T14:59:43;7.82;;;7.63;;
12800;SDS011;6464;42.494;27.470;2023-05-02T15:02:10;7.88;;;7.68;;
12800;SDS011;6464;42.494;27.470;2023-05-02T15:04:37;7.78;;;7.57;;
12800;SDS011;6464;42.494;27.470;2023-05-02T15:07:04;7.82;;;7.63;;
12800;SDS011;6464;42.494;27.470;2023-05-02T15:09:31;7.70;;;7.50;;
12800;SDS011;6464;42.494;27.470;2023-05-02T15:11:58;8.15;;;7.95;;
12800;SDS011;6464;42.494;27.470;2023-05-02T15:14:28;8.00;;;7.80;;
12800;SDS011;6464;42.494;27.470;2023-05-02T15:16:55;8.10;;;7.90;;
12800;SDS011;6464;42.494;27.470;2023-05-02T15:19:21;8.43;;;8.13;;
12800;SDS011;6464;42.494;27.470;2023-05-02T15:21:49;8.07;;;7.88;;
12800;SDS011;6464;42.494;27.470;2023-05-02T15:24:17;8.40;;;8.10;;
12800;SDS011;6464;42.494;27.470;2023-05-02T15:26:44;8.40;;;8.10;;
12800;SDS011;6464;42.494;27.470;2023-05-02T15:29:11;8.10;;;7.90;;
12800;SDS011;6464;42.494;27.470;2023-05-02T15:31:39;8.00;;;7.80;;
12800;SDS011;6464;42.494;27.470;2023-05-02T15:34:06;8.02;;;7.82;;
12800;SDS011;6464;42.494;27.470;2023-05-02T15:36:33;8.00;;;7.80;;
12800;SDS011;6464;42.494;27.470;2023-05-02T15:39:01;7.88;;;7.68;;
12800;SDS011;6464;42.494;27.470;2023-05-02T15:41:28;7.90;;;7.70;;
12800;SDS011;6464;42.494;27.470;2023-05-02T15:43:55;7.70;;;7.50;;
12800;SDS011;6464;42.494;27.470;2023-05-02T15:46:24;7.55;;;7.35;;
12800;SDS011;6464;42.494;27.470;2023-05-02T15:49:12;7.40;;;7.20;;
12800;SDS011;6464;42.494;27.470;2023-05-02T15:51:47;7.32;;;7.13;;
12800;SDS011;6464;42.494;27.470;2023-05-02T15:56:55;6.90;;;6.70;;
12800;SDS011;6464;42.494;27.470;2023-05-02T16:00:25;7.10;;;6.90;;
12800;SDS011;6464;42.494;27.470;2023-05-02T16:06:34;6.70;;;6.50;;
12800;SDS011;6464;42.494;27.470;2023-05-02T16:09:05;6.85;;;6.65;;
12800;SDS011;6464;42.494;27.470;2023-05-02T16:11:59;6.90;;;6.70;;
12800;SDS011;6464;42.494;27.470;2023-05-02T16:14:29;6.90;;;6.70;;
12800;SDS011;6464;42.494;27.470;2023-05-02T16:19:34;7.38;;;7.18;;
12800;SDS011;6464;42.494;27.470;2023-05-02T16:30:19;6.55;;;6.35;;
12800;SDS011;6464;42.494;27.470;2023-05-02T16:32:47;6.57;;;6.38;;
12800;SDS011;6464;42.494;27.470;2023-05-02T16:35:21;6.53;;;6.32;;
12800;SDS011;6464;42.494;27.470;2023-05-02T16:37:49;6.60;;;6.40;;
12800;SDS011;6464;42.494;27.470;2023-05-02T16:40:18;6.60;;;6.40;;
12800;SDS011;6464;42.494;27.470;2023-05-02T16:42:53;6.40;;;6.20;;
12800;SDS011;6464;42.494;27.470;2023-05-02T16:45:22;6.25;;;6.05;;
12800;SDS011;6464;42.494;27.470;2023-05-02T16:47:50;5.80;;;5.70;;
12800;SDS011;6464;42.494;27.470;2023-05-02T16:50:18;6.10;;;5.97;;
12800;SDS011;6464;42.494;27.470;2023-05-02T16:52:47;6.10;;;6.00;;
12800;SDS011;6464;42.494;27.470;2023-05-02T16:55:14;6.30;;;6.10;;
12800;SDS011;6464;42.494;27.470;2023-05-02T16:57:42;5.88;;;5.78;;
12800;SDS011;6464;42.494;27.470;2023-05-02T17:00:15;6.25;;;6.05;;
12800;SDS011;6464;42.494;27.470;2023-05-02T17:02:48;6.40;;;6.20;;
12800;SDS011;6464;42.494;27.470;2023-05-02T17:05:19;6.28;;;6.07;;
12800;SDS011;6464;42.494;27.470;2023-05-02T17:07:50;6.40;;;6.20;;
12800;SDS011;6464;42.494;27.470;2023-05-02T17:10:25;6.13;;;5.93;;
12800;SDS011;6464;42.494;27.470;2023-05-02T17:12:52;5.80;;;5.70;;
12800;SDS011;6464;42.494;27.470;2023-05-02T17:15:27;5.68;;;5.57;;
12800;SDS011;6464;42.494;27.470;2023-05-02T17:17:56;5.70;;;5.60;;
12800;SDS011;6464;42.494;27.470;2023-05-02T17:20:24;5.28;;;5.18;;
12800;SDS011;6464;42.494;27.470;2023-05-02T17:22:54;5.20;;;5.10;;
12800;SDS011;6464;42.494;27.470;2023-05-02T17:25:26;5.30;;;5.20;;
12800;SDS011;6464;42.494;27.470;2023-05-02T17:27:58;5.20;;;5.10;;
12800;SDS011;6464;42.494;27.470;2023-05-02T17:30:27;5.40;;;5.30;;
12800;SDS011;6464;42.494;27.470;2023-05-02T17:33:04;5.40;;;5.30;;
12800;SDS011;6464;42.494;27.470;2023-05-02T17:35:33;5.90;;;5.80;;
12800;SDS011;6464;42.494;27.470;2023-05-02T17:38:07;5.57;;;5.47;;
12800;SDS011;6464;42.494;27.470;2023-05-02T17:40:34;5.40;;;5.30;;
12800;SDS011;6464;42.494;27.470;2023-05-02T17:43:03;5.20;;;5.10;;
12800;SDS011;6464;42.494;27.470;2023-05-02T17:45:32;5.30;;;5.20;;
12800;SDS011;6464;42.494;27.470;2023-05-02T17:48:03;5.13;;;5.03;;
12800;SDS011;6464;42.494;27.470;2023-05-02T17:50:34;4.67;;;4.57;;
12800;SDS011;6464;42.494;27.470;2023-05-02T17:53:07;3.83;;;3.77;;
12800;SDS011;6464;42.494;27.470;2023-05-02T17:55:37;3.60;;;3.60;;
12800;SDS011;6464;42.494;27.470;2023-05-02T17:58:04;3.60;;;3.60;;
12800;SDS011;6464;42.494;27.470;2023-05-02T18:00:34;3.33;;;3.33;;
12800;SDS011;6464;42.494;27.470;2023-05-02T18:06:17;3.40;;;3.40;;
12800;SDS011;6464;42.494;27.470;2023-05-02T18:08:45;3.20;;;3.20;;
12800;SDS011;6464;42.494;27.470;2023-05-02T18:11:18;3.23;;;3.23;;
12800;SDS011;6464;42.494;27.470;2023-05-02T18:13:52;3.40;;;3.40;;
12800;SDS011;6464;42.494;27.470;2023-05-02T18:16:20;3.20;;;3.20;;
12800;SDS011;6464;42.494;27.470;2023-05-02T18:18:48;3.33;;;3.33;;
12800;SDS011;6464;42.494;27.470;2023-05-02T18:21:21;3.10;;;3.10;;
12800;SDS011;6464;42.494;27.470;2023-05-02T18:23:50;3.10;;;3.10;;
12800;SDS011;6464;42.494;27.470;2023-05-02T18:26:18;3.00;;;3.00;;
12800;SDS011;6464;42.494;27.470;2023-05-02T18:28:49;2.43;;;2.43;;
12800;SDS011;6464;42.494;27.470;2023-05-02T18:31:17;2.50;;;2.50;;
12800;SDS011;6464;42.494;27.470;2023-05-02T18:33:45;2.40;;;2.40;;
12800;SDS011;6464;42.494;27.470;2023-05-02T18:36:12;2.00;;;2.00;;
12800;SDS011;6464;42.494;27.470;2023-05-02T18:38:45;1.63;;;1.63;;
12800;SDS011;6464;42.494;27.470;2023-05-02T18:41:12;1.23;;;1.23;;
12800;SDS011;6464;42.494;27.470;2023-05-02T18:43:41;1.00;;;1.00;;
12800;SDS011;6464;42.494;27.470;2023-05-02T18:46:09;0.80;;;0.80;;
12800;SDS011;6464;42.494;27.470;2023-05-02T18:48:37;0.90;;;0.90;;
12800;SDS011;6464;42.494;27.470;2023-05-02T18:51:13;0.80;;;0.80;;
12800;SDS011;6464;42.494;27.470;2023-05-02T18:53:41;1.07;;;1.07;;
12800;SDS011;6464;42.494;27.470;2023-05-02T18:56:13;1.20;;;1.20;;
12800;SDS011;6464;42.494;27.470;2023-05-02T18:58:44;1.30;;;1.30;;
12800;SDS011;6464;42.494;27.470;2023-05-02T19:01:13;1.30;;;1.30;;
12800;SDS011;6464;42.494;27.470;2023-05-02T19:06:27;1.50;;;1.50;;
12800;SDS011;6464;42.494;27.470;2023-05-02T19:08:56;1.30;;;1.30;;
12800;SDS011;6464;42.494;27.470;2023-05-02T19:11:25;1.13;;;1.13;;
12800;SDS011;6464;42.494;27.470;2023-05-02T19:13:55;1.10;;;1.10;;
12800;SDS011;6464;42.494;27.470;2023-05-02T19:16:24;1.10;;;1.10;;
12800;SDS011;6464;42.494;27.470;2023-05-02T19:18:53;1.10;;;1.10;;
12800;SDS011;6464;42.494;27.470;2023-05-02T19:21:24;1.23;;;1.23;;
12800;SDS011;6464;42.494;27.470;2023-05-02T19:23:52;1.20;;;1.20;;
12800;SDS011;6464;42.494;27.470;2023-05-02T19:26:21;1.40;;;1.40;;
12800;SDS011;6464;42.494;27.470;2023-05-02T19:28:55;1.40;;;1.40;;
12800;SDS011;6464;42.494;27.470;2023-05-02T19:31:23;1.40;;;1.40;;
12800;SDS011;6464;42.494;27.470;2023-05-02T19:33:52;1.20;;;1.20;;
12800;SDS011;6464;42.494;27.470;2023-05-02T19:36:20;1.30;;;1.30;;
12800;SDS011;6464;42.494;27.470;2023-05-02T19:38:49;1.07;;;1.07;;
12800;SDS011;6464;42.494;27.470;2023-05-02T19:41:18;1.00;;;1.00;;
12800;SDS011;6464;42.494;27.470;2023-05-02T19:43:46;1.00;;;1.00;;
12800;SDS011;6464;42.494;27.470;2023-05-02T19:46:16;0.90;;;0.90;;
12800;SDS011;6464;42.494;27.470;2023-05-02T19:48:44;0.80;;;0.80;;
12800;SDS011;6464;42.494;27.470;2023-05-02T19:51:11;0.70;;;0.70;;
12800;SDS011;6464;42.494;27.470;2023-05-02T19:53:39;0.50;;;0.50;;
12800;SDS011;6464;42.494;27.470;2023-05-02T19:56:07;0.40;;;0.40;;
12800;SDS011;6464;42.494;27.470;2023-05-02T19:58:39;0.20;;;0.20;;
12800;SDS011;6464;42.494;27.470;2023-05-02T20:01:07;0.30;;;0.30;;
12800;SDS011;6464;42.494;27.470;2023-05-02T20:03:37;0.20;;;0.20;;